Bw Mindoro — MAKR9 — position and weather

sailwx.info

Track history (hours):
 
Tides and Currents Weather Stations Pressure Air Temp Water Temp Dewpoint Dewpoint Depression Visibility Wind Speed Wind Dir Waves Ship Positions

Bw Mindoro

Last reported at 2018-Feb-21 08:18 UTC. Time now 2018-Feb-25 00:11 UTC.
Position N 05°49' E 001°20'.

Length 226 m; draft 8 m.

Type: Tanker. MMSI: 232005596.

Date/timePositionNaut miles runAvg speedWind from/ knotsBaromVisibWave heightAir tempDewpointWater temp
2018-Feb-21 08:18N 05°49' E 001°20'11 5.2
2018-Feb-21 06:11N 05°59' E 001°15'0 0.2
2018-Feb-21 05:59N 05°59' E 001°15'0 0.0
2018-Feb-20 21:52N 05°59' E 001°15'0 0.0
2018-Feb-20 21:28N 05°59' E 001°15'0 0.0
2018-Feb-20 20:52N 05°59' E 001°15'0 0.1
2018-Feb-20 20:11N 05°59' E 001°15'0 0.1
2018-Feb-20 19:59N 05°59' E 001°15'0 0.2
2018-Feb-20 19:30N 05°59' E 001°15'1 2.0
2018-Feb-20 19:00N 05°59' E 001°16'2 4.7
2018-Feb-20 18:30N 05°58' E 001°18'1 1.3
2018-Feb-20 17:54N 05°57' E 001°18'0 0.2
2018-Feb-20 17:31N 05°57' E 001°18'5 1.4
2018-Feb-20 14:04N 06°02' E 001°17'0 1.0
2018-Feb-20 14:01N 06°02' E 001°17'0 0.0
2018-Feb-20 13:10N 06°02' E 001°17'0 0.2
2018-Feb-20 13:01N 06°02' E 001°17'0 0.1
2018-Feb-20 12:28N 06°02' E 001°17'0 0.1
2018-Feb-20 11:49N 06°02' E 001°17'0 0.0
2018-Feb-19 21:22N 06°02' E 001°17'0 0.0
2018-Feb-19 20:42N 06°02' E 001°17'0 0.1
2018-Feb-19 20:21N 06°02' E 001°17'0 0.0
2018-Feb-19 18:04N 06°02' E 001°17'3 0.2
2018-Feb-19 04:25N 05°60' E 001°15'0 0.0
2018-Feb-19 03:55N 05°60' E 001°15'0 0.0
2018-Feb-19 01:52N 05°60' E 001°15'0 0.0
2018-Feb-19 01:25N 05°60' E 001°15'0 0.0
2018-Feb-19 00:58N 05°60' E 001°15'0 0.0
2018-Feb-19 00:28N 05°60' E 001°15'0 0.0
2018-Feb-18 23:58N 05°60' E 001°15'0 0.0
2018-Feb-18 23:25N 05°60' E 001°15'0 0.0
2018-Feb-18 22:55N 05°60' E 001°15'0 0.0
2018-Feb-18 22:10N 05°60' E 001°15'0 0.0
2018-Feb-18 21:49N 05°60' E 001°15'0 0.0
2018-Feb-18 21:28N 05°60' E 001°15'0 0.0
2018-Feb-18 20:25N 05°60' E 001°15'0 0.0
2018-Feb-18 19:52N 05°60' E 001°15'0 0.0
2018-Feb-18 19:28N 05°60' E 001°15'0 0.0
2018-Feb-18 18:58N 05°60' E 001°15'0 0.0
2018-Feb-18 18:28N 05°60' E 001°15'0 0.0
2018-Feb-18 17:58N 05°60' E 001°15'0 0.0
2018-Feb-18 17:28N 05°60' E 001°15'0 0.0
2018-Feb-18 16:52N 05°60' E 001°15'0 0.0
2018-Feb-17 17:43N 05°60' E 001°15'0 0.0
2018-Feb-17 05:16N 05°60' E 001°15'0 0.0
2018-Feb-17 04:58N 05°60' E 001°15'0 0.0
2018-Feb-16 20:25N 05°60' E 001°15'0 0.0
2018-Feb-16 19:58N 05°60' E 001°15'0 0.0
2018-Feb-16 19:28N 05°60' E 001°15'0 0.0
2018-Feb-16 18:58N 05°60' E 001°15'0 0.0
2018-Feb-16 18:22N 05°60' E 001°15'0 0.0
2018-Feb-16 17:55N 05°60' E 001°15'0 0.0
2018-Feb-16 17:22N 05°60' E 001°15'0 0.0
2018-Feb-16 16:10N 05°60' E 001°15'0 0.0
2018-Feb-16 15:49N 05°60' E 001°15'0 0.0
2018-Feb-16 02:39N 05°60' E 001°15'0 0.0
2018-Feb-16 02:18N 05°60' E 001°15'0 0.0
2018-Feb-16 01:57N 05°60' E 001°15'0 0.0
2018-Feb-16 00:21N 05°60' E 001°15'0 0.0
2018-Feb-15 23:57N 05°60' E 001°15'0 0.0
2018-Feb-15 23:31N 05°60' E 001°15'0 0.0
2018-Feb-15 22:51N 05°60' E 001°15'0 0.0
2018-Feb-15 22:30N 05°60' E 001°15'0 0.0
2018-Feb-15 19:21N 05°60' E 001°15'0 0.0
2018-Feb-15 08:06N 05°60' E 001°15'0 0.1
2018-Feb-15 07:58N 05°60' E 001°15'0 0.2
2018-Feb-15 06:56N 05°59' E 001°15'  
Track history (hours):
 
Tides and Currents Weather Stations Pressure Air Temp Water Temp Dewpoint Dewpoint Depression Visibility Wind Speed Wind Dir Waves Ship Positions

Bw Mindoro

Last reported at 2018-Feb-21 08:18 UTC. Time now 2018-Feb-25 00:11 UTC.
Position N 05°49' E 001°20'.

Length 226 m; draft 8 m.

Type: Tanker. MMSI: 232005596.

Date/timePositionNaut miles runAvg speedWind from/ knotsBaromVisibWave heightAir tempDewpointWater temp
2018-Feb-21 08:18N 05°49' E 001°20'11 5.2
2018-Feb-21 06:11N 05°59' E 001°15'0 0.2
2018-Feb-21 05:59N 05°59' E 001°15'0 0.0
2018-Feb-20 21:52N 05°59' E 001°15'0 0.0
2018-Feb-20 21:28N 05°59' E 001°15'0 0.0
2018-Feb-20 20:52N 05°59' E 001°15'0 0.1
2018-Feb-20 20:11N 05°59' E 001°15'0 0.1
2018-Feb-20 19:59N 05°59' E 001°15'0 0.2
2018-Feb-20 19:30N 05°59' E 001°15'1 2.0
2018-Feb-20 19:00N 05°59' E 001°16'2 4.7
2018-Feb-20 18:30N 05°58' E 001°18'1 1.3
2018-Feb-20 17:54N 05°57' E 001°18'0 0.2
2018-Feb-20 17:31N 05°57' E 001°18'5 1.4
2018-Feb-20 14:04N 06°02' E 001°17'0 1.0
2018-Feb-20 14:01N 06°02' E 001°17'0 0.0
2018-Feb-20 13:10N 06°02' E 001°17'0 0.2
2018-Feb-20 13:01N 06°02' E 001°17'0 0.1
2018-Feb-20 12:28N 06°02' E 001°17'0 0.1
2018-Feb-20 11:49N 06°02' E 001°17'0 0.0
2018-Feb-19 21:22N 06°02' E 001°17'0 0.0
2018-Feb-19 20:42N 06°02' E 001°17'0 0.1
2018-Feb-19 20:21N 06°02' E 001°17'0 0.0
2018-Feb-19 18:04N 06°02' E 001°17'3 0.2
2018-Feb-19 04:25N 05°60' E 001°15'0 0.0
2018-Feb-19 03:55N 05°60' E 001°15'0 0.0
2018-Feb-19 01:52N 05°60' E 001°15'0 0.0
2018-Feb-19 01:25N 05°60' E 001°15'0 0.0
2018-Feb-19 00:58N 05°60' E 001°15'0 0.0
2018-Feb-19 00:28N 05°60' E 001°15'0 0.0
2018-Feb-18 23:58N 05°60' E 001°15'0 0.0
2018-Feb-18 23:25N 05°60' E 001°15'0 0.0
2018-Feb-18 22:55N 05°60' E 001°15'0 0.0
2018-Feb-18 22:10N 05°60' E 001°15'0 0.0
2018-Feb-18 21:49N 05°60' E 001°15'0 0.0
2018-Feb-18 21:28N 05°60' E 001°15'0 0.0
2018-Feb-18 20:25N 05°60' E 001°15'0 0.0
2018-Feb-18 19:52N 05°60' E 001°15'0 0.0
2018-Feb-18 19:28N 05°60' E 001°15'0 0.0
2018-Feb-18 18:58N 05°60' E 001°15'0 0.0
2018-Feb-18 18:28N 05°60' E 001°15'0 0.0
2018-Feb-18 17:58N 05°60' E 001°15'0 0.0
2018-Feb-18 17:28N 05°60' E 001°15'0 0.0
2018-Feb-18 16:52N 05°60' E 001°15'0 0.0
2018-Feb-17 17:43N 05°60' E 001°15'0 0.0
2018-Feb-17 05:16N 05°60' E 001°15'0 0.0
2018-Feb-17 04:58N 05°60' E 001°15'0 0.0
2018-Feb-16 20:25N 05°60' E 001°15'0 0.0
2018-Feb-16 19:58N 05°60' E 001°15'0 0.0
2018-Feb-16 19:28N 05°60' E 001°15'0 0.0
2018-Feb-16 18:58N 05°60' E 001°15'0 0.0
2018-Feb-16 18:22N 05°60' E 001°15'0 0.0
2018-Feb-16 17:55N 05°60' E 001°15'0 0.0
2018-Feb-16 17:22N 05°60' E 001°15'0 0.0
2018-Feb-16 16:10N 05°60' E 001°15'0 0.0
2018-Feb-16 15:49N 05°60' E 001°15'0 0.0
2018-Feb-16 02:39N 05°60' E 001°15'0 0.0
2018-Feb-16 02:18N 05°60' E 001°15'0 0.0
2018-Feb-16 01:57N 05°60' E 001°15'0 0.0
2018-Feb-16 00:21N 05°60' E 001°15'0 0.0
2018-Feb-15 23:57N 05°60' E 001°15'0 0.0
2018-Feb-15 23:31N 05°60' E 001°15'0 0.0
2018-Feb-15 22:51N 05°60' E 001°15'0 0.0
2018-Feb-15 22:30N 05°60' E 001°15'0 0.0
2018-Feb-15 19:21N 05°60' E 001°15'0 0.0
2018-Feb-15 08:06N 05°60' E 001°15'0 0.1
2018-Feb-15 07:58N 05°60' E 001°15'0 0.2
2018-Feb-15 06:56N 05°59' E 001°15'  

Dump ship's entire track history